sensor_id;sensor_type;location;lat;lon;timestamp;pressure;altitude;pressure_sealevel;temperature;humidity
17060;BME280;8646;49.716;9.266;2023-04-27T00:00:20;100526.31;;;7.27;65.72
17060;BME280;8646;49.716;9.266;2023-04-27T00:03:23;100516.56;;;7.22;66.00
17060;BME280;8646;49.716;9.266;2023-04-27T00:06:27;100511.34;;;7.16;66.47
17060;BME280;8646;49.716;9.266;2023-04-27T00:09:31;100511.44;;;7.13;66.83
17060;BME280;8646;49.716;9.266;2023-04-27T00:12:34;100510.56;;;7.12;67.18
17060;BME280;8646;49.716;9.266;2023-04-27T00:15:37;100513.16;;;7.15;67.51
17060;BME280;8646;49.716;9.266;2023-04-27T00:18:39;100513.09;;;7.18;67.23
17060;BME280;8646;49.716;9.266;2023-04-27T00:21:42;100520.13;;;7.22;67.38
17060;BME280;8646;49.716;9.266;2023-04-27T00:24:46;100513.78;;;7.26;67.26
17060;BME280;8646;49.716;9.266;2023-04-27T00:27:49;100515.44;;;7.31;67.73
17060;BME280;8646;49.716;9.266;2023-04-27T00:30:52;100518.09;;;7.32;67.42
17060;BME280;8646;49.716;9.266;2023-04-27T00:33:55;100508.16;;;7.36;67.88
17060;BME280;8646;49.716;9.266;2023-04-27T00:36:58;100508.94;;;7.39;67.68
17060;BME280;8646;49.716;9.266;2023-04-27T00:40:05;100514.38;;;7.38;67.78
17060;BME280;8646;49.716;9.266;2023-04-27T00:43:08;100514.38;;;7.38;68.13
17060;BME280;8646;49.716;9.266;2023-04-27T00:46:11;100507.06;;;7.43;67.93
17060;BME280;8646;49.716;9.266;2023-04-27T00:49:15;100509.56;;;7.49;67.75
17060;BME280;8646;49.716;9.266;2023-04-27T00:52:18;100514.03;;;7.50;67.51
17060;BME280;8646;49.716;9.266;2023-04-27T00:55:22;100513.13;;;7.51;67.15
17060;BME280;8646;49.716;9.266;2023-04-27T00:58:25;100509.50;;;7.52;67.10
17060;BME280;8646;49.716;9.266;2023-04-27T01:01:28;100506.97;;;7.46;67.11
17060;BME280;8646;49.716;9.266;2023-04-27T01:04:31;100507.13;;;7.40;66.66
17060;BME280;8646;49.716;9.266;2023-04-27T01:07:36;100508.38;;;7.26;66.72
17060;BME280;8646;49.716;9.266;2023-04-27T01:10:40;100498.03;;;7.11;67.16
17060;BME280;8646;49.716;9.266;2023-04-27T01:13:43;100501.00;;;6.99;66.94
17060;BME280;8646;49.716;9.266;2023-04-27T01:16:46;100503.03;;;6.89;67.41
17060;BME280;8646;49.716;9.266;2023-04-27T01:19:49;100510.41;;;6.81;67.79
17060;BME280;8646;49.716;9.266;2023-04-27T01:22:56;100512.41;;;6.73;68.03
17060;BME280;8646;49.716;9.266;2023-04-27T01:26:00;100523.25;;;6.70;68.26
17060;BME280;8646;49.716;9.266;2023-04-27T01:29:03;100526.94;;;6.66;68.38
17060;BME280;8646;49.716;9.266;2023-04-27T01:32:12;100518.16;;;6.58;68.43
17060;BME280;8646;49.716;9.266;2023-04-27T01:35:15;100529.94;;;6.53;68.64
17060;BME280;8646;49.716;9.266;2023-04-27T01:38:18;100528.25;;;6.48;68.82
17060;BME280;8646;49.716;9.266;2023-04-27T01:41:22;100528.28;;;6.47;69.14
17060;BME280;8646;49.716;9.266;2023-04-27T01:44:25;100523.88;;;6.43;69.04
17060;BME280;8646;49.716;9.266;2023-04-27T01:47:27;100521.16;;;6.44;69.07
17060;BME280;8646;49.716;9.266;2023-04-27T01:50:30;100524.69;;;6.48;68.92
17060;BME280;8646;49.716;9.266;2023-04-27T01:53:33;100528.41;;;6.41;69.25
17060;BME280;8646;49.716;9.266;2023-04-27T01:56:37;100526.56;;;6.43;69.00
17060;BME280;8646;49.716;9.266;2023-04-27T01:59:40;100528.47;;;6.39;69.07
17060;BME280;8646;49.716;9.266;2023-04-27T02:02:43;100530.34;;;6.34;69.29
17060;BME280;8646;49.716;9.266;2023-04-27T02:05:46;100535.03;;;6.25;69.19
17060;BME280;8646;49.716;9.266;2023-04-27T02:08:49;100532.44;;;6.22;69.63
17060;BME280;8646;49.716;9.266;2023-04-27T02:11:53;100538.88;;;6.15;69.86
17060;BME280;8646;49.716;9.266;2023-04-27T02:14:56;100543.41;;;6.11;70.25
17060;BME280;8646;49.716;9.266;2023-04-27T02:17:58;100541.75;;;6.05;70.41
17060;BME280;8646;49.716;9.266;2023-04-27T02:21:07;100539.13;;;6.01;70.44
17060;BME280;8646;49.716;9.266;2023-04-27T02:24:10;100542.81;;;5.97;70.68
17060;BME280;8646;49.716;9.266;2023-04-27T02:27:14;100541.03;;;5.96;70.51
17060;BME280;8646;49.716;9.266;2023-04-27T02:30:17;100543.84;;;5.91;70.70
17060;BME280;8646;49.716;9.266;2023-04-27T02:33:21;100557.31;;;5.87;70.67
17060;BME280;8646;49.716;9.266;2023-04-27T02:36:24;100550.16;;;5.89;70.46
17060;BME280;8646;49.716;9.266;2023-04-27T02:39:28;100544.78;;;5.89;70.55
17060;BME280;8646;49.716;9.266;2023-04-27T02:42:32;100558.31;;;5.83;70.78
17060;BME280;8646;49.716;9.266;2023-04-27T02:45:36;100549.50;;;5.74;70.58
17060;BME280;8646;49.716;9.266;2023-04-27T02:48:39;100556.91;;;5.60;71.13
17060;BME280;8646;49.716;9.266;2023-04-27T02:51:42;100558.94;;;5.49;71.33
17060;BME280;8646;49.716;9.266;2023-04-27T02:54:45;100560.78;;;5.44;71.51
17060;BME280;8646;49.716;9.266;2023-04-27T02:57:49;100561.78;;;5.40;71.86
17060;BME280;8646;49.716;9.266;2023-04-27T03:00:53;100572.56;;;5.35;72.17
17060;BME280;8646;49.716;9.266;2023-04-27T03:03:56;100570.91;;;5.30;72.34
17060;BME280;8646;49.716;9.266;2023-04-27T03:07:00;100577.25;;;5.26;72.54
17060;BME280;8646;49.716;9.266;2023-04-27T03:10:03;100578.22;;;5.20;72.85
17060;BME280;8646;49.716;9.266;2023-04-27T03:13:08;100574.72;;;5.17;72.87
17060;BME280;8646;49.716;9.266;2023-04-27T03:16:11;100573.00;;;5.11;72.96
17060;BME280;8646;49.716;9.266;2023-04-27T03:19:13;100563.22;;;5.09;73.07
17060;BME280;8646;49.716;9.266;2023-04-27T03:22:16;100565.03;;;5.07;72.97
17060;BME280;8646;49.716;9.266;2023-04-27T03:25:19;100562.41;;;5.04;73.29
17060;BME280;8646;49.716;9.266;2023-04-27T03:28:24;100557.00;;;5.07;73.30
17060;BME280;8646;49.716;9.266;2023-04-27T03:31:27;100555.22;;;5.06;73.37
17060;BME280;8646;49.716;9.266;2023-04-27T03:34:30;100556.97;;;5.08;73.36
17060;BME280;8646;49.716;9.266;2023-04-27T03:37:32;100558.72;;;5.11;73.49
17060;BME280;8646;49.716;9.266;2023-04-27T03:40:36;100556.84;;;5.14;73.49
17060;BME280;8646;49.716;9.266;2023-04-27T03:43:40;100559.44;;;5.20;73.45
17060;BME280;8646;49.716;9.266;2023-04-27T03:46:43;100561.16;;;5.24;73.26
17060;BME280;8646;49.716;9.266;2023-04-27T03:49:46;100561.97;;;5.29;73.29
17060;BME280;8646;49.716;9.266;2023-04-27T03:52:49;100560.16;;;5.30;73.04
17060;BME280;8646;49.716;9.266;2023-04-27T03:55:51;100560.16;;;5.30;72.89
17060;BME280;8646;49.716;9.266;2023-04-27T03:58:55;100555.81;;;5.23;72.86
17060;BME280;8646;49.716;9.266;2023-04-27T04:01:58;100558.63;;;5.15;72.84
17060;BME280;8646;49.716;9.266;2023-04-27T04:05:02;100546.44;;;4.96;72.80
17060;BME280;8646;49.716;9.266;2023-04-27T04:08:05;100557.13;;;4.97;73.05
17060;BME280;8646;49.716;9.266;2023-04-27T04:11:10;100556.38;;;4.89;73.18
17060;BME280;8646;49.716;9.266;2023-04-27T04:14:14;100566.28;;;4.86;73.45
17060;BME280;8646;49.716;9.266;2023-04-27T04:17:17;100565.47;;;4.79;73.37
17060;BME280;8646;49.716;9.266;2023-04-27T04:20:19;100576.19;;;4.79;73.77
17060;BME280;8646;49.716;9.266;2023-04-27T04:23:22;100573.56;;;4.78;73.80
17060;BME280;8646;49.716;9.266;2023-04-27T04:26:25;100577.94;;;4.83;73.82
17060;BME280;8646;49.716;9.266;2023-04-27T04:29:29;100583.16;;;4.92;73.83
17060;BME280;8646;49.716;9.266;2023-04-27T04:32:33;100581.13;;;5.07;73.74
17060;BME280;8646;49.716;9.266;2023-04-27T04:35:38;100576.41;;;5.22;73.68
17060;BME280;8646;49.716;9.266;2023-04-27T04:38:41;100576.13;;;5.37;73.01
17060;BME280;8646;49.716;9.266;2023-04-27T04:41:44;100580.44;;;5.46;72.80
17060;BME280;8646;49.716;9.266;2023-04-27T04:44:48;100571.34;;;5.55;72.34
17060;BME280;8646;49.716;9.266;2023-04-27T04:47:51;100564.91;;;5.63;72.09
17060;BME280;8646;49.716;9.266;2023-04-27T04:50:56;100562.06;;;5.72;71.90
17060;BME280;8646;49.716;9.266;2023-04-27T04:53:59;100566.28;;;5.84;71.67
17060;BME280;8646;49.716;9.266;2023-04-27T04:57:02;100560.59;;;6.02;71.98
17060;BME280;8646;49.716;9.266;2023-04-27T05:00:10;100565.00;;;6.08;72.07
17060;BME280;8646;49.716;9.266;2023-04-27T05:03:14;100564.16;;;6.04;73.16
17060;BME280;8646;49.716;9.266;2023-04-27T05:06:17;100572.22;;;6.04;74.17
17060;BME280;8646;49.716;9.266;2023-04-27T05:09:20;100574.13;;;5.99;74.39
17060;BME280;8646;49.716;9.266;2023-04-27T05:12:23;100576.97;;;5.92;74.98
17060;BME280;8646;49.716;9.266;2023-04-27T05:15:27;100584.75;;;6.04;74.95
17060;BME280;8646;49.716;9.266;2023-04-27T05:18:30;100584.03;;;5.96;75.43
17060;BME280;8646;49.716;9.266;2023-04-27T05:21:33;100593.09;;;5.90;75.50
17060;BME280;8646;49.716;9.266;2023-04-27T05:24:35;100587.47;;;6.02;75.26
17060;BME280;8646;49.716;9.266;2023-04-27T05:27:39;100585.34;;;6.18;75.21
17060;BME280;8646;49.716;9.266;2023-04-27T05:30:43;100583.53;;;6.20;75.27
17060;BME280;8646;49.716;9.266;2023-04-27T05:33:46;100580.94;;;6.16;75.41
17060;BME280;8646;49.716;9.266;2023-04-27T05:36:48;100584.53;;;6.16;75.43
17060;BME280;8646;49.716;9.266;2023-04-27T05:39:51;100590.66;;;6.23;74.99
17060;BME280;8646;49.716;9.266;2023-04-27T05:42:54;100584.25;;;6.28;74.30
17060;BME280;8646;49.716;9.266;2023-04-27T05:45:58;100584.19;;;6.31;75.08
17060;BME280;8646;49.716;9.266;2023-04-27T05:49:01;100585.84;;;6.38;74.39
17060;BME280;8646;49.716;9.266;2023-04-27T05:52:04;100582.16;;;6.42;74.18
17060;BME280;8646;49.716;9.266;2023-04-27T05:55:07;100588.84;;;6.65;73.45
17060;BME280;8646;49.716;9.266;2023-04-27T05:58:09;100587.78;;;6.72;73.13
17060;BME280;8646;49.716;9.266;2023-04-27T06:01:13;100592.97;;;6.79;72.83
17060;BME280;8646;49.716;9.266;2023-04-27T06:04:16;100592.81;;;6.87;72.72
17060;BME280;8646;49.716;9.266;2023-04-27T06:07:19;100591.09;;;6.83;72.70
17060;BME280;8646;49.716;9.266;2023-04-27T06:10:22;100583.63;;;6.96;72.72
17060;BME280;8646;49.716;9.266;2023-04-27T06:13:25;100589.75;;;7.02;72.54
17060;BME280;8646;49.716;9.266;2023-04-27T06:16:29;100586.19;;;7.00;72.11
17060;BME280;8646;49.716;9.266;2023-04-27T06:19:32;100589.50;;;7.13;71.53
17060;BME280;8646;49.716;9.266;2023-04-27T06:22:34;100592.06;;;7.53;69.69
17060;BME280;8646;49.716;9.266;2023-04-27T06:25:38;100591.06;;;7.89;68.18
17060;BME280;8646;49.716;9.266;2023-04-27T06:28:41;100595.25;;;8.01;67.52
17060;BME280;8646;49.716;9.266;2023-04-27T06:31:47;100590.63;;;8.37;66.27
17060;BME280;8646;49.716;9.266;2023-04-27T06:34:50;100582.13;;;8.80;64.45
17060;BME280;8646;49.716;9.266;2023-04-27T06:37:53;100587.97;;;9.22;62.39
17060;BME280;8646;49.716;9.266;2023-04-27T06:41:02;100579.38;;;9.62;60.80
17060;BME280;8646;49.716;9.266;2023-04-27T06:44:05;100569.53;;;10.36;58.69
17060;BME280;8646;49.716;9.266;2023-04-27T06:47:09;100568.53;;;10.61;57.13
17060;BME280;8646;49.716;9.266;2023-04-27T06:50:13;100576.47;;;10.66;56.08
17060;BME280;8646;49.716;9.266;2023-04-27T06:53:17;100569.75;;;10.98;55.48
17060;BME280;8646;49.716;9.266;2023-04-27T06:56:20;100568.66;;;11.25;54.83
17060;BME280;8646;49.716;9.266;2023-04-27T06:59:23;100565.63;;;11.53;53.95
17060;BME280;8646;49.716;9.266;2023-04-27T07:02:27;100563.13;;;11.91;52.58
17060;BME280;8646;49.716;9.266;2023-04-27T07:05:30;100555.88;;;12.69;50.69
17060;BME280;8646;49.716;9.266;2023-04-27T07:08:35;100551.91;;;12.95;49.11
17060;BME280;8646;49.716;9.266;2023-04-27T07:11:38;100553.81;;;12.55;49.09
17060;BME280;8646;49.716;9.266;2023-04-27T07:14:40;100554.31;;;11.85;48.70
17060;BME280;8646;49.716;9.266;2023-04-27T07:17:45;100559.00;;;11.40;48.63
17060;BME280;8646;49.716;9.266;2023-04-27T07:20:47;100561.72;;;11.18;49.27
17060;BME280;8646;49.716;9.266;2023-04-27T07:23:50;100565.22;;;10.98;48.82
17060;BME280;8646;49.716;9.266;2023-04-27T07:26:55;100572.31;;;10.79;49.62
17060;BME280;8646;49.716;9.266;2023-04-27T07:29:59;100571.94;;;10.88;49.90
17060;BME280;8646;49.716;9.266;2023-04-27T07:33:04;100573.09;;;11.04;49.86
17060;BME280;8646;49.716;9.266;2023-04-27T07:36:07;100571.16;;;11.30;49.81
17060;BME280;8646;49.716;9.266;2023-04-27T07:39:10;100553.59;;;11.60;48.99
17060;BME280;8646;49.716;9.266;2023-04-27T07:42:13;100554.66;;;11.78;47.17
17060;BME280;8646;49.716;9.266;2023-04-27T07:45:16;100553.06;;;11.72;46.89
17060;BME280;8646;49.716;9.266;2023-04-27T07:48:20;100550.81;;;11.62;48.28
17060;BME280;8646;49.716;9.266;2023-04-27T07:51:25;100551.59;;;11.85;47.78
17060;BME280;8646;49.716;9.266;2023-04-27T07:54:29;100548.09;;;11.83;47.35
17060;BME280;8646;49.716;9.266;2023-04-27T07:57:32;100548.19;;;12.01;47.21
17060;BME280;8646;49.716;9.266;2023-04-27T08:00:34;100540.34;;;12.15;47.06
17060;BME280;8646;49.716;9.266;2023-04-27T08:03:41;100545.88;;;12.32;46.35
17060;BME280;8646;49.716;9.266;2023-04-27T08:06:44;100540.59;;;12.67;45.95
17060;BME280;8646;49.716;9.266;2023-04-27T08:09:49;100527.25;;;12.81;45.42
17060;BME280;8646;49.716;9.266;2023-04-27T08:12:52;100539.13;;;12.97;45.98
17060;BME280;8646;49.716;9.266;2023-04-27T08:15:55;100537.88;;;12.67;45.44
17060;BME280;8646;49.716;9.266;2023-04-27T08:19:01;100534.94;;;12.52;46.05
17060;BME280;8646;49.716;9.266;2023-04-27T08:22:03;100539.69;;;12.29;46.55
17060;BME280;8646;49.716;9.266;2023-04-27T08:25:07;100523.38;;;12.10;46.85
17060;BME280;8646;49.716;9.266;2023-04-27T08:28:10;100534.63;;;12.01;47.24
17060;BME280;8646;49.716;9.266;2023-04-27T08:31:16;100530.28;;;12.17;47.72
17060;BME280;8646;49.716;9.266;2023-04-27T08:34:20;100530.66;;;12.28;46.98
17060;BME280;8646;49.716;9.266;2023-04-27T08:37:22;100516.88;;;12.14;47.28
17060;BME280;8646;49.716;9.266;2023-04-27T08:40:25;100526.63;;;12.18;47.02
17060;BME280;8646;49.716;9.266;2023-04-27T08:43:32;100515.75;;;12.18;46.99
17060;BME280;8646;49.716;9.266;2023-04-27T08:46:36;100513.94;;;12.18;46.56
17060;BME280;8646;49.716;9.266;2023-04-27T08:49:40;100507.00;;;12.32;46.20
17060;BME280;8646;49.716;9.266;2023-04-27T08:52:43;100503.53;;;12.28;46.23
17060;BME280;8646;49.716;9.266;2023-04-27T08:55:46;100499.22;;;12.24;46.62
17060;BME280;8646;49.716;9.266;2023-04-27T08:58:48;100499.75;;;12.32;46.55
17060;BME280;8646;49.716;9.266;2023-04-27T09:01:53;100491.44;;;12.35;46.80
17060;BME280;8646;49.716;9.266;2023-04-27T09:05:01;100488.88;;;12.51;46.78
17060;BME280;8646;49.716;9.266;2023-04-27T09:08:06;100487.72;;;12.56;46.60
17060;BME280;8646;49.716;9.266;2023-04-27T09:11:11;100487.63;;;12.77;46.09
17060;BME280;8646;49.716;9.266;2023-04-27T09:14:16;100497.16;;;12.85;46.45
17060;BME280;8646;49.716;9.266;2023-04-27T09:17:23;100492.81;;;12.81;46.37
17060;BME280;8646;49.716;9.266;2023-04-27T09:20:27;100476.16;;;13.06;45.67
17060;BME280;8646;49.716;9.266;2023-04-27T09:23:31;100482.13;;;13.14;46.08
17060;BME280;8646;49.716;9.266;2023-04-27T09:26:36;100478.97;;;13.41;45.28
17060;BME280;8646;49.716;9.266;2023-04-27T09:29:39;100473.44;;;13.42;45.12
17060;BME280;8646;49.716;9.266;2023-04-27T09:32:51;100476.78;;;13.64;45.31
17060;BME280;8646;49.716;9.266;2023-04-27T09:35:58;100466.53;;;13.87;44.62
17060;BME280;8646;49.716;9.266;2023-04-27T09:39:02;100458.91;;;14.10;44.33
17060;BME280;8646;49.716;9.266;2023-04-27T09:42:05;100454.94;;;14.49;43.63
17060;BME280;8646;49.716;9.266;2023-04-27T09:45:10;100455.19;;;14.60;42.55
17060;BME280;8646;49.716;9.266;2023-04-27T09:48:13;100441.56;;;14.60;42.78
17060;BME280;8646;49.716;9.266;2023-04-27T09:51:17;100441.13;;;14.83;42.03
17060;BME280;8646;49.716;9.266;2023-04-27T09:54:21;100440.31;;;14.97;41.99
17060;BME280;8646;49.716;9.266;2023-04-27T09:57:34;100439.28;;;15.00;42.10
17060;BME280;8646;49.716;9.266;2023-04-27T10:00:50;100435.38;;;15.04;42.21
17060;BME280;8646;49.716;9.266;2023-04-27T10:04:07;100423.75;;;15.16;40.62
17060;BME280;8646;49.716;9.266;2023-04-27T10:07:16;100431.69;;;15.05;41.33
17060;BME280;8646;49.716;9.266;2023-04-27T10:10:19;100428.38;;;15.00;40.66
17060;BME280;8646;49.716;9.266;2023-04-27T10:13:23;100424.44;;;14.89;40.68
17060;BME280;8646;49.716;9.266;2023-04-27T10:16:26;100431.38;;;14.79;41.12
17060;BME280;8646;49.716;9.266;2023-04-27T10:19:29;100426.78;;;14.96;40.62
17060;BME280;8646;49.716;9.266;2023-04-27T10:22:41;100418.84;;;15.07;40.04
17060;BME280;8646;49.716;9.266;2023-04-27T10:25:45;100407.72;;;15.25;40.20
17060;BME280;8646;49.716;9.266;2023-04-27T10:28:55;100394.97;;;14.96;40.56
17060;BME280;8646;49.716;9.266;2023-04-27T10:32:05;100397.31;;;15.02;40.65
17060;BME280;8646;49.716;9.266;2023-04-27T10:35:08;100413.88;;;15.29;40.90
17060;BME280;8646;49.716;9.266;2023-04-27T10:38:16;100383.31;;;15.38;39.72
17060;BME280;8646;49.716;9.266;2023-04-27T10:41:19;100409.28;;;15.59;39.54
17060;BME280;8646;49.716;9.266;2023-04-27T10:44:25;100401.16;;;15.88;38.61
17060;BME280;8646;49.716;9.266;2023-04-27T10:47:36;100405.03;;;15.84;38.60
17060;BME280;8646;49.716;9.266;2023-04-27T10:50:40;100405.03;;;16.12;38.98
17060;BME280;8646;49.716;9.266;2023-04-27T10:53:44;100395.94;;;16.26;37.51
17060;BME280;8646;49.716;9.266;2023-04-27T10:56:48;100393.13;;;16.27;37.89
17060;BME280;8646;49.716;9.266;2023-04-27T10:59:52;100389.56;;;16.39;37.55
17060;BME280;8646;49.716;9.266;2023-04-27T11:03:00;100377.47;;;16.44;37.08
17060;BME280;8646;49.716;9.266;2023-04-27T11:06:11;100385.47;;;16.61;37.39
17060;BME280;8646;49.716;9.266;2023-04-27T11:09:25;100380.88;;;16.88;37.58
17060;BME280;8646;49.716;9.266;2023-04-27T11:12:30;100377.56;;;17.10;37.14
17060;BME280;8646;49.716;9.266;2023-04-27T11:15:42;100372.53;;;17.16;37.00
17060;BME280;8646;49.716;9.266;2023-04-27T11:18:44;100370.25;;;17.36;36.79
17060;BME280;8646;49.716;9.266;2023-04-27T11:21:47;100368.25;;;17.65;36.19
17060;BME280;8646;49.716;9.266;2023-04-27T11:24:52;100368.25;;;17.77;36.10
17060;BME280;8646;49.716;9.266;2023-04-27T11:27:55;100359.94;;;17.91;35.60
17060;BME280;8646;49.716;9.266;2023-04-27T11:30:58;100350.94;;;18.02;36.02
17060;BME280;8646;49.716;9.266;2023-04-27T11:34:01;100358.16;;;18.16;35.62
17060;BME280;8646;49.716;9.266;2023-04-27T11:37:05;100358.06;;;18.05;35.60
17060;BME280;8646;49.716;9.266;2023-04-27T11:40:13;100352.88;;;18.13;34.99
17060;BME280;8646;49.716;9.266;2023-04-27T11:43:16;100349.38;;;18.11;34.84
17060;BME280;8646;49.716;9.266;2023-04-27T11:46:19;100345.41;;;18.27;34.91
17060;BME280;8646;49.716;9.266;2023-04-27T11:49:24;100342.75;;;18.39;34.93
17060;BME280;8646;49.716;9.266;2023-04-27T11:52:27;100328.88;;;18.53;34.81
17060;BME280;8646;49.716;9.266;2023-04-27T11:55:35;100338.19;;;18.87;34.56
17060;BME280;8646;49.716;9.266;2023-04-27T11:58:42;100335.78;;;18.82;34.57
17060;BME280;8646;49.716;9.266;2023-04-27T12:01:47;100330.44;;;18.81;33.45
17060;BME280;8646;49.716;9.266;2023-04-27T12:04:50;100336.91;;;18.80;33.87
17060;BME280;8646;49.716;9.266;2023-04-27T12:07:53;100338.50;;;19.06;34.02
17060;BME280;8646;49.716;9.266;2023-04-27T12:10:57;100333.78;;;19.08;33.51
17060;BME280;8646;49.716;9.266;2023-04-27T12:14:01;100332.50;;;19.01;33.41
17060;BME280;8646;49.716;9.266;2023-04-27T12:17:04;100321.25;;;18.93;33.54
17060;BME280;8646;49.716;9.266;2023-04-27T12:20:09;100332.56;;;19.12;33.78
17060;BME280;8646;49.716;9.266;2023-04-27T12:23:12;100325.59;;;19.30;33.66
17060;BME280;8646;49.716;9.266;2023-04-27T12:26:16;100320.50;;;19.26;32.98
17060;BME280;8646;49.716;9.266;2023-04-27T12:29:19;100319.50;;;19.27;33.32
17060;BME280;8646;49.716;9.266;2023-04-27T12:32:22;100321.16;;;19.29;33.30
17060;BME280;8646;49.716;9.266;2023-04-27T12:35:25;100305.41;;;19.31;32.81
17060;BME280;8646;49.716;9.266;2023-04-27T12:38:32;100321.59;;;19.12;32.87
17060;BME280;8646;49.716;9.266;2023-04-27T12:41:36;100314.56;;;19.08;33.18
17060;BME280;8646;49.716;9.266;2023-04-27T12:44:40;100308.66;;;19.25;32.21
17060;BME280;8646;49.716;9.266;2023-04-27T12:47:42;100311.06;;;19.06;32.61
17060;BME280;8646;49.716;9.266;2023-04-27T12:51:01;100304.75;;;19.17;32.22
17060;BME280;8646;49.716;9.266;2023-04-27T12:54:05;100310.75;;;19.22;32.90
17060;BME280;8646;49.716;9.266;2023-04-27T12:57:09;100300.47;;;19.48;32.76
17060;BME280;8646;49.716;9.266;2023-04-27T13:00:13;100298.16;;;19.65;33.07
17060;BME280;8646;49.716;9.266;2023-04-27T13:03:16;100298.53;;;19.83;32.92
17060;BME280;8646;49.716;9.266;2023-04-27T13:06:19;100287.16;;;19.88;32.87
17060;BME280;8646;49.716;9.266;2023-04-27T13:09:26;100295.28;;;19.89;32.67
17060;BME280;8646;49.716;9.266;2023-04-27T13:12:30;100296.91;;;19.80;32.39
17060;BME280;8646;49.716;9.266;2023-04-27T13:15:33;100279.78;;;19.88;32.03
17060;BME280;8646;49.716;9.266;2023-04-27T13:18:37;100283.06;;;19.82;32.04
17060;BME280;8646;49.716;9.266;2023-04-27T13:21:40;100287.06;;;19.78;32.34
17060;BME280;8646;49.716;9.266;2023-04-27T13:24:43;100276.16;;;19.88;32.33
17060;BME280;8646;49.716;9.266;2023-04-27T13:27:47;100284.28;;;20.00;32.24
17060;BME280;8646;49.716;9.266;2023-04-27T13:30:51;100270.81;;;20.08;31.96
17060;BME280;8646;49.716;9.266;2023-04-27T13:33:56;100272.88;;;20.27;32.00
17060;BME280;8646;49.716;9.266;2023-04-27T13:36:59;100270.13;;;20.49;31.86
17060;BME280;8646;49.716;9.266;2023-04-27T13:40:01;100265.97;;;20.55;31.03
17060;BME280;8646;49.716;9.266;2023-04-27T13:43:07;100260.88;;;20.50;30.79
17060;BME280;8646;49.716;9.266;2023-04-27T13:46:09;100260.50;;;20.44;30.42
17060;BME280;8646;49.716;9.266;2023-04-27T13:49:14;100253.06;;;20.35;30.41
17060;BME280;8646;49.716;9.266;2023-04-27T13:52:16;100255.16;;;20.20;30.85
17060;BME280;8646;49.716;9.266;2023-04-27T13:55:19;100253.25;;;20.32;30.85
17060;BME280;8646;49.716;9.266;2023-04-27T13:58:25;100256.09;;;20.52;30.72
17060;BME280;8646;49.716;9.266;2023-04-27T14:01:28;100250.16;;;20.68;30.85
17060;BME280;8646;49.716;9.266;2023-04-27T14:04:31;100258.13;;;20.82;30.84
17060;BME280;8646;49.716;9.266;2023-04-27T14:07:34;100255.16;;;20.95;30.36
17060;BME280;8646;49.716;9.266;2023-04-27T14:10:37;100243.06;;;20.86;30.43
17060;BME280;8646;49.716;9.266;2023-04-27T14:13:41;100250.22;;;20.57;30.54
17060;BME280;8646;49.716;9.266;2023-04-27T14:16:44;100258.38;;;20.36;31.11
17060;BME280;8646;49.716;9.266;2023-04-27T14:19:47;100254.50;;;20.28;31.43
17060;BME280;8646;49.716;9.266;2023-04-27T14:22:50;100255.03;;;20.22;31.54
17060;BME280;8646;49.716;9.266;2023-04-27T14:25:53;100259.13;;;20.27;31.41
17060;BME280;8646;49.716;9.266;2023-04-27T14:28:57;100259.00;;;20.29;31.32
17060;BME280;8646;49.716;9.266;2023-04-27T14:32:00;100264.38;;;20.19;31.50
17060;BME280;8646;49.716;9.266;2023-04-27T14:35:03;100241.59;;;19.96;31.58
17060;BME280;8646;49.716;9.266;2023-04-27T14:38:07;100244.31;;;20.07;31.92
17060;BME280;8646;49.716;9.266;2023-04-27T14:41:10;100252.03;;;20.25;31.86
17060;BME280;8646;49.716;9.266;2023-04-27T14:44:14;100250.66;;;20.41;31.77
17060;BME280;8646;49.716;9.266;2023-04-27T14:47:17;100242.22;;;20.54;31.74
17060;BME280;8646;49.716;9.266;2023-04-27T14:50:20;100244.44;;;20.60;31.57
17060;BME280;8646;49.716;9.266;2023-04-27T14:53:23;100250.34;;;20.55;31.25
17060;BME280;8646;49.716;9.266;2023-04-27T14:56:25;100242.56;;;20.61;31.49
17060;BME280;8646;49.716;9.266;2023-04-27T14:59:30;100254.19;;;20.64;30.99
17060;BME280;8646;49.716;9.266;2023-04-27T15:02:35;100241.69;;;20.60;30.90
17060;BME280;8646;49.716;9.266;2023-04-27T15:05:37;100255.44;;;20.60;31.24
17060;BME280;8646;49.716;9.266;2023-04-27T15:08:40;100251.97;;;20.58;31.25
17060;BME280;8646;49.716;9.266;2023-04-27T15:11:43;100253.56;;;20.61;30.96
17060;BME280;8646;49.716;9.266;2023-04-27T15:14:47;100249.47;;;20.55;30.94
17060;BME280;8646;49.716;9.266;2023-04-27T15:17:52;100253.75;;;20.48;31.26
17060;BME280;8646;49.716;9.266;2023-04-27T15:20:55;100245.75;;;20.45;31.36
17060;BME280;8646;49.716;9.266;2023-04-27T15:23:58;100252.25;;;20.44;31.58
17060;BME280;8646;49.716;9.266;2023-04-27T15:27:01;100247.16;;;20.39;31.29
17060;BME280;8646;49.716;9.266;2023-04-27T15:30:06;100239.28;;;20.24;30.35
17060;BME280;8646;49.716;9.266;2023-04-27T15:33:09;100241.09;;;20.02;31.40
17060;BME280;8646;49.716;9.266;2023-04-27T15:36:12;100241.47;;;19.98;31.50
17060;BME280;8646;49.716;9.266;2023-04-27T15:39:16;100243.84;;;19.91;31.40
17060;BME280;8646;49.716;9.266;2023-04-27T15:42:19;100241.38;;;19.77;31.56
17060;BME280;8646;49.716;9.266;2023-04-27T15:45:23;100240.38;;;19.78;31.77
17060;BME280;8646;49.716;9.266;2023-04-27T15:48:26;100236.13;;;19.74;31.26
17060;BME280;8646;49.716;9.266;2023-04-27T15:51:29;100233.66;;;19.60;31.77
17060;BME280;8646;49.716;9.266;2023-04-27T15:54:33;100236.38;;;19.49;31.66
17060;BME280;8646;49.716;9.266;2023-04-27T15:57:36;100233.41;;;19.52;31.78
17060;BME280;8646;49.716;9.266;2023-04-27T16:00:41;100224.66;;;19.58;31.71
17060;BME280;8646;49.716;9.266;2023-04-27T16:03:49;100214.44;;;19.60;32.20
17060;BME280;8646;49.716;9.266;2023-04-27T16:06:53;100211.69;;;19.60;32.18
17060;BME280;8646;49.716;9.266;2023-04-27T16:09:56;100204.94;;;19.64;31.78
17060;BME280;8646;49.716;9.266;2023-04-27T16:12:59;100200.06;;;19.67;31.84
17060;BME280;8646;49.716;9.266;2023-04-27T16:16:03;100191.31;;;19.73;32.21
17060;BME280;8646;49.716;9.266;2023-04-27T16:19:08;100180.81;;;19.78;32.04